createdAt,value
2023-05-14T00:00:49.640Z,13.05
2023-05-14T00:02:03.921Z,13.04
2023-05-14T00:03:06.887Z,13.09
2023-05-14T00:04:10.122Z,13.20
2023-05-14T00:05:13.033Z,13.34
2023-05-14T00:06:16.167Z,13.49
2023-05-14T00:07:18.942Z,13.63
2023-05-14T00:08:21.733Z,13.75
2023-05-14T00:09:24.761Z,13.86
2023-05-14T00:10:28.161Z,13.96
2023-05-14T00:11:30.932Z,14.04
2023-05-14T00:12:33.954Z,14.12
2023-05-14T00:13:36.885Z,14.18
2023-05-14T00:14:39.672Z,14.25
2023-05-14T00:15:42.614Z,14.29
2023-05-14T00:16:45.369Z,14.27
2023-05-14T00:17:48.208Z,14.19
2023-05-14T00:18:51.128Z,14.07
2023-05-14T00:19:54.019Z,13.95
2023-05-14T00:20:56.725Z,13.86
2023-05-14T00:21:59.495Z,13.76
2023-05-14T00:23:02.232Z,13.66
2023-05-14T00:24:05.474Z,13.58
2023-05-14T00:25:08.969Z,13.50
2023-05-14T00:26:11.772Z,13.44
2023-05-14T00:27:14.936Z,13.37
2023-05-14T00:28:17.724Z,13.32
2023-05-14T00:29:20.689Z,13.26
2023-05-14T00:30:24.061Z,13.21
2023-05-14T00:31:27.092Z,13.16
2023-05-14T00:32:29.946Z,13.10
2023-05-14T00:33:33.066Z,13.06
2023-05-14T00:34:36.683Z,13.02
2023-05-14T00:35:39.627Z,12.97
2023-05-14T00:36:42.413Z,12.94
2023-05-14T00:37:45.265Z,12.90
2023-05-14T00:38:48.017Z,12.91
2023-05-14T00:39:50.941Z,13.00
2023-05-14T00:40:53.981Z,13.12
2023-05-14T00:41:56.777Z,13.24
2023-05-14T00:42:59.901Z,13.36
2023-05-14T00:44:02.621Z,13.46
2023-05-14T00:45:06.793Z,13.55
2023-05-14T00:46:09.759Z,13.63
2023-05-14T00:47:12.967Z,13.71
2023-05-14T00:48:15.860Z,13.77
2023-05-14T00:49:19.138Z,13.83
2023-05-14T00:50:22.875Z,13.88
2023-05-14T00:51:25.970Z,13.94
2023-05-14T00:52:28.913Z,13.98
2023-05-14T00:53:31.724Z,14.02
2023-05-14T00:54:35.336Z,14.05
2023-05-14T00:55:39.003Z,14.09
2023-05-14T00:56:45.064Z,14.12
2023-05-14T00:57:49.230Z,14.15
2023-05-14T00:58:52.056Z,14.18
2023-05-14T00:59:55.424Z,14.20
2023-05-14T01:00:58.230Z,14.23
2023-05-14T01:02:01.548Z,14.26
2023-05-14T01:03:05.419Z,14.29
2023-05-14T01:04:09.980Z,14.30
2023-05-14T01:05:13.044Z,14.32
2023-05-14T01:06:23.386Z,14.34
2023-05-14T01:07:59.535Z,14.36
2023-05-14T01:09:13.073Z,14.24
2023-05-14T01:10:24.492Z,14.08
2023-05-14T01:11:41.299Z,13.93
2023-05-14T01:12:48.760Z,13.77
2023-05-14T01:14:06.616Z,13.66
2023-05-14T01:15:13.896Z,13.53
2023-05-14T01:16:20.040Z,13.44
2023-05-14T01:17:27.125Z,13.35
2023-05-14T01:18:32.554Z,13.28
2023-05-14T01:19:45.525Z,13.21
2023-05-14T01:20:52.238Z,13.13
2023-05-14T01:21:55.074Z,13.07
2023-05-14T01:22:58.165Z,13.07
2023-05-14T01:24:00.952Z,13.14
2023-05-14T01:25:05.566Z,13.24
2023-05-14T01:26:08.515Z,13.35
2023-05-14T01:27:11.590Z,13.44
2023-05-14T01:28:24.510Z,13.52
2023-05-14T01:29:29.081Z,13.58
2023-05-14T01:32:11.042Z,13.71
2023-05-14T01:33:16.379Z,13.75
2023-05-14T01:34:22.900Z,13.80
2023-05-14T01:35:28.434Z,13.84
2023-05-14T01:36:31.798Z,13.88
2023-05-14T01:37:36.468Z,13.91
2023-05-14T01:38:39.828Z,13.95
2023-05-14T01:39:43.188Z,13.97
2023-05-14T01:40:47.570Z,13.99
2023-05-14T01:41:52.534Z,14.02
2023-05-14T01:42:56.631Z,14.04
2023-05-14T01:43:59.492Z,14.05
2023-05-14T01:45:02.752Z,14.07
2023-05-14T01:46:05.636Z,14.09
2023-05-14T01:47:08.442Z,14.10
2023-05-14T01:48:11.394Z,14.12
2023-05-14T01:49:14.233Z,14.14
2023-05-14T01:50:17.660Z,14.15
2023-05-14T01:51:20.595Z,14.17
2023-05-14T01:52:23.509Z,14.18
2023-05-14T01:53:26.446Z,14.20
2023-05-14T01:54:29.179Z,14.21
2023-05-14T01:55:31.937Z,14.22
2023-05-14T01:56:34.713Z,14.24
2023-05-14T01:57:37.473Z,14.24
2023-05-14T01:58:40.333Z,14.25
2023-05-14T01:59:43.170Z,14.26
2023-05-14T02:00:46.000Z,14.26
2023-05-14T02:01:48.810Z,14.27
2023-05-14T02:02:51.724Z,14.28
2023-05-14T02:03:54.598Z,14.28
2023-05-14T02:04:58.079Z,14.29
2023-05-14T02:06:00.900Z,14.29
2023-05-14T02:07:04.014Z,14.31
2023-05-14T02:08:06.873Z,14.30
2023-05-14T02:09:09.720Z,14.30
2023-05-14T02:10:12.687Z,14.30
2023-05-14T02:11:15.586Z,14.30
2023-05-14T02:12:18.379Z,14.30
2023-05-14T02:13:21.422Z,14.30
2023-05-14T02:14:24.289Z,14.28
2023-05-14T02:15:27.155Z,14.28
2023-05-14T02:16:30.240Z,14.27
2023-05-14T02:17:33.125Z,14.26
2023-05-14T02:18:35.950Z,14.26
2023-05-14T02:19:38.801Z,14.26
2023-05-14T02:20:41.623Z,14.25
2023-05-14T02:21:44.566Z,14.24
2023-05-14T02:22:48.312Z,14.24
2023-05-14T02:23:51.227Z,14.23
2023-05-14T02:24:54.076Z,14.22
2023-05-14T02:25:56.809Z,14.21
2023-05-14T02:27:01.078Z,14.20
2023-05-14T02:28:04.092Z,14.20
2023-05-14T02:29:06.855Z,14.19
2023-05-14T02:30:10.659Z,14.18
2023-05-14T02:31:14.950Z,14.17
2023-05-14T02:32:18.034Z,14.18
2023-05-14T02:33:21.412Z,14.18
2023-05-14T02:34:24.613Z,14.18
2023-05-14T02:35:27.488Z,14.17
2023-05-14T02:36:30.716Z,14.18
2023-05-14T02:37:34.802Z,14.17
2023-05-14T02:38:37.659Z,14.17
2023-05-14T02:39:40.475Z,14.17
2023-05-14T02:40:43.234Z,14.17
2023-05-14T02:41:46.060Z,14.17
2023-05-14T02:42:49.006Z,14.17
2023-05-14T02:43:52.672Z,14.16
2023-05-14T02:44:55.739Z,14.16
2023-05-14T02:45:58.600Z,14.14
2023-05-14T02:47:01.510Z,14.14
2023-05-14T02:48:04.774Z,14.14
2023-05-14T02:49:07.736Z,14.14
2023-05-14T02:50:11.218Z,14.14
2023-05-14T02:51:14.035Z,14.13
2023-05-14T02:52:16.783Z,14.13
2023-05-14T02:53:19.601Z,14.12
2023-05-14T02:54:22.439Z,14.11
2023-05-14T02:55:26.498Z,14.10
2023-05-14T02:56:29.301Z,14.08
2023-05-14T02:57:32.075Z,14.07
2023-05-14T02:58:34.879Z,14.06
2023-05-14T02:59:38.042Z,14.04
2023-05-14T03:00:41.560Z,14.04
2023-05-14T03:01:45.023Z,14.03
2023-05-14T03:02:48.328Z,14.02
2023-05-14T03:03:51.766Z,14.02
2023-05-14T03:04:55.189Z,14.02
2023-05-14T03:05:57.963Z,14.02
2023-05-14T03:07:00.938Z,14.03
2023-05-14T03:08:03.795Z,14.03
2023-05-14T03:09:07.500Z,14.03
2023-05-14T03:10:10.735Z,14.04
2023-05-14T03:11:13.544Z,14.03
2023-05-14T03:12:16.466Z,14.03
2023-05-14T03:13:20.735Z,14.02
2023-05-14T03:14:23.585Z,14.01
2023-05-14T03:15:26.480Z,14.01
2023-05-14T03:16:29.463Z,14.01
2023-05-14T03:17:32.592Z,14.00
2023-05-14T03:18:36.676Z,14.01
2023-05-14T03:19:39.571Z,14.00
2023-05-14T03:20:43.436Z,13.99
2023-05-14T03:21:46.858Z,13.99
2023-05-14T03:22:49.746Z,13.98
2023-05-14T03:23:53.626Z,13.98
2023-05-14T03:24:56.408Z,13.98
2023-05-14T03:25:59.198Z,13.98
2023-05-14T03:27:01.998Z,13.99
2023-05-14T03:28:05.024Z,13.97
2023-05-14T03:29:07.849Z,13.97
2023-05-14T03:30:11.800Z,13.97
2023-05-14T03:31:16.414Z,13.96
2023-05-14T03:32:19.565Z,13.97
2023-05-14T03:33:22.853Z,13.97
2023-05-14T03:34:25.780Z,13.98
2023-05-14T03:35:28.534Z,13.99
2023-05-14T03:36:32.048Z,14.00
2023-05-14T03:37:34.893Z,14.00
2023-05-14T03:38:37.741Z,13.99
2023-05-14T03:39:40.557Z,14.01
2023-05-14T03:40:44.921Z,14.02
2023-05-14T03:41:48.281Z,14.04
2023-05-14T03:42:51.091Z,14.05
2023-05-14T03:43:54.122Z,14.07
2023-05-14T03:44:56.885Z,14.09
2023-05-14T03:46:00.003Z,14.11
2023-05-14T03:47:03.288Z,14.13
2023-05-14T03:48:06.776Z,14.15
2023-05-14T03:49:09.795Z,14.17
2023-05-14T03:50:12.613Z,14.18
2023-05-14T03:51:15.578Z,14.19
2023-05-14T03:52:18.424Z,14.20
2023-05-14T03:53:21.290Z,14.20
2023-05-14T03:54:24.189Z,14.20
2023-05-14T03:55:26.995Z,14.19
2023-05-14T03:56:29.742Z,14.20
2023-05-14T03:57:32.529Z,14.21
2023-05-14T03:58:35.362Z,14.22
2023-05-14T03:59:38.310Z,14.23
2023-05-14T04:00:44.208Z,14.25
2023-05-14T04:01:47.119Z,14.27
2023-05-14T04:02:50.057Z,14.29
2023-05-14T04:03:53.436Z,14.33
2023-05-14T04:04:56.666Z,14.35
2023-05-14T04:05:59.524Z,14.38
2023-05-14T04:07:02.398Z,14.41
2023-05-14T04:08:05.877Z,14.43
2023-05-14T04:09:10.687Z,14.47
2023-05-14T04:10:14.023Z,14.50
2023-05-14T04:11:16.898Z,14.52
2023-05-14T04:12:19.728Z,14.54
2023-05-14T04:13:22.867Z,14.57
2023-05-14T04:14:25.583Z,14.59
2023-05-14T04:15:28.706Z,14.62
2023-05-14T04:16:31.594Z,14.65
2023-05-14T04:17:35.096Z,14.68
2023-05-14T04:18:38.055Z,14.71
2023-05-14T04:19:40.841Z,14.74
2023-05-14T04:20:43.685Z,14.77
2023-05-14T04:21:46.562Z,14.80
2023-05-14T04:22:49.285Z,14.83
2023-05-14T04:23:52.036Z,14.86
2023-05-14T04:24:54.731Z,14.90
2023-05-14T04:25:58.360Z,14.93
2023-05-14T04:27:01.225Z,14.97
2023-05-14T04:28:04.091Z,15.01
2023-05-14T04:29:06.865Z,15.05
2023-05-14T04:30:10.191Z,15.08
2023-05-14T04:31:13.099Z,15.13
2023-05-14T04:32:15.998Z,15.16
2023-05-14T04:33:18.783Z,15.20
2023-05-14T04:34:21.754Z,15.24
2023-05-14T04:35:25.308Z,15.28
2023-05-14T04:36:28.116Z,15.32
2023-05-14T04:37:31.699Z,15.37
2023-05-14T04:38:34.707Z,15.41
2023-05-14T04:39:37.939Z,15.45
2023-05-14T04:40:43.858Z,15.51
2023-05-14T04:41:46.641Z,15.55
2023-05-14T04:42:49.402Z,15.60
2023-05-14T04:43:56.632Z,15.65
2023-05-14T04:44:59.473Z,15.69
2023-05-14T04:46:02.443Z,15.74
2023-05-14T04:47:06.885Z,15.79
2023-05-14T04:48:09.730Z,15.83
2023-05-14T04:49:12.761Z,15.88
2023-05-14T04:50:15.575Z,15.93
2023-05-14T04:51:18.510Z,15.99
2023-05-14T04:52:21.343Z,16.05
2023-05-14T04:53:24.460Z,16.10
2023-05-14T04:54:27.329Z,16.15
2023-05-14T04:55:30.350Z,16.21
2023-05-14T04:56:33.156Z,16.27
2023-05-14T04:57:35.869Z,16.31
2023-05-14T04:58:38.605Z,16.35
2023-05-14T04:59:41.436Z,16.39
2023-05-14T05:00:44.506Z,16.45
2023-05-14T05:01:47.461Z,16.50
2023-05-14T05:02:50.729Z,16.55
2023-05-14T05:03:53.579Z,16.60
2023-05-14T05:04:56.315Z,16.64
2023-05-14T05:05:59.315Z,16.70
2023-05-14T05:07:02.087Z,16.75
2023-05-14T05:08:04.847Z,16.80
2023-05-14T05:09:08.814Z,16.85
2023-05-14T05:10:11.811Z,16.83
2023-05-14T05:11:14.777Z,16.75
2023-05-14T05:12:17.571Z,16.64
2023-05-14T05:13:20.363Z,16.54
2023-05-14T05:14:23.169Z,16.45
2023-05-14T05:15:26.741Z,16.38
2023-05-14T05:16:29.912Z,16.33
2023-05-14T05:17:32.989Z,16.28
2023-05-14T05:18:35.924Z,16.25
2023-05-14T05:19:43.805Z,16.24
2023-05-14T05:20:47.412Z,16.25
2023-05-14T05:21:51.176Z,16.31
2023-05-14T05:22:54.029Z,16.36
2023-05-14T05:23:56.851Z,16.39
2023-05-14T05:24:59.906Z,16.41
2023-05-14T05:26:02.620Z,16.44
2023-05-14T05:27:06.107Z,16.45
2023-05-14T05:28:08.952Z,16.47
2023-05-14T05:29:11.872Z,16.48
2023-05-14T05:30:14.647Z,16.51
2023-05-14T05:31:19.685Z,16.53
2023-05-14T05:32:23.237Z,16.56
2023-05-14T05:33:26.080Z,16.59
2023-05-14T05:34:28.915Z,16.60
2023-05-14T05:35:31.615Z,16.62
2023-05-14T05:36:34.489Z,16.64
2023-05-14T05:37:37.216Z,16.68
2023-05-14T05:38:39.970Z,16.75
2023-05-14T05:39:42.830Z,16.84
2023-05-14T05:40:45.549Z,16.95
2023-05-14T05:41:48.360Z,17.05
2023-05-14T05:42:51.152Z,17.12
2023-05-14T05:43:53.994Z,17.17
2023-05-14T05:44:56.849Z,17.21
2023-05-14T05:46:01.620Z,17.25
2023-05-14T05:47:04.839Z,17.26
2023-05-14T05:48:07.828Z,17.29
2023-05-14T05:49:10.620Z,17.30
2023-05-14T05:50:13.556Z,17.32
2023-05-14T05:51:16.439Z,17.35
2023-05-14T05:52:19.511Z,17.38
2023-05-14T05:53:22.556Z,17.41
2023-05-14T05:54:25.712Z,17.43
2023-05-14T05:55:29.672Z,17.46
2023-05-14T05:56:32.497Z,17.49
2023-05-14T05:57:35.341Z,17.52
2023-05-14T05:58:38.787Z,17.55
2023-05-14T05:59:41.577Z,17.58
2023-05-14T06:00:44.652Z,17.59
2023-05-14T06:01:48.211Z,17.61
2023-05-14T06:02:51.117Z,17.63
2023-05-14T06:03:53.897Z,17.65
2023-05-14T06:04:56.766Z,17.66
2023-05-14T06:05:59.675Z,17.70
2023-05-14T06:07:02.516Z,17.72
2023-05-14T06:08:05.795Z,17.75
2023-05-14T06:09:09.227Z,17.78
2023-05-14T06:10:12.022Z,17.82
2023-05-14T06:11:15.415Z,17.87
2023-05-14T06:12:18.208Z,17.92
2023-05-14T06:13:20.990Z,17.96
2023-05-14T06:14:23.770Z,17.99
2023-05-14T06:15:26.607Z,18.03
2023-05-14T06:16:31.664Z,18.07
2023-05-14T06:17:34.549Z,18.11
2023-05-14T06:18:37.447Z,18.15
2023-05-14T06:19:40.372Z,18.21
2023-05-14T06:20:43.287Z,18.30
2023-05-14T06:21:46.125Z,18.40
2023-05-14T06:22:48.976Z,18.47
2023-05-14T06:23:51.732Z,18.53
2023-05-14T06:24:54.740Z,18.58
2023-05-14T06:25:57.609Z,18.63
2023-05-14T06:27:00.380Z,18.67
2023-05-14T06:28:03.328Z,18.71
2023-05-14T06:29:06.178Z,18.74
2023-05-14T06:30:10.443Z,18.76
2023-05-14T06:31:13.791Z,18.79
2023-05-14T06:32:16.924Z,18.81
2023-05-14T06:33:23.415Z,18.82
2023-05-14T06:34:26.347Z,18.84
2023-05-14T06:35:29.363Z,18.85
2023-05-14T06:36:32.185Z,18.86
2023-05-14T06:37:34.956Z,18.87
2023-05-14T06:38:37.893Z,18.89
2023-05-14T06:39:46.517Z,18.91
2023-05-14T06:40:49.390Z,18.93
2023-05-14T06:41:52.170Z,18.94
2023-05-14T06:42:55.079Z,18.97
2023-05-14T06:43:57.873Z,18.99
2023-05-14T06:45:00.759Z,19.01
2023-05-14T06:46:03.617Z,19.03
2023-05-14T06:47:08.619Z,19.06
2023-05-14T06:48:11.774Z,19.09
2023-05-14T06:49:14.895Z,19.10
2023-05-14T06:50:18.065Z,19.13
2023-05-14T06:51:20.968Z,19.17
2023-05-14T06:52:23.772Z,19.21
2023-05-14T06:53:26.730Z,19.23
2023-05-14T06:54:30.159Z,19.25
2023-05-14T06:55:32.989Z,19.27
2023-05-14T06:56:35.810Z,19.29
2023-05-14T06:57:40.644Z,19.33
2023-05-14T06:58:43.752Z,19.34
2023-05-14T06:59:46.629Z,19.36
2023-05-14T07:00:49.525Z,19.38
2023-05-14T07:01:52.401Z,19.40
2023-05-14T07:02:57.671Z,19.43
2023-05-14T07:04:00.738Z,19.47
2023-05-14T07:05:03.630Z,19.50
2023-05-14T07:06:06.851Z,19.52
2023-05-14T07:07:13.527Z,19.54
2023-05-14T07:08:16.315Z,19.55
2023-05-14T07:09:19.123Z,19.59
2023-05-14T07:10:22.376Z,19.62
2023-05-14T07:11:25.529Z,19.66
2023-05-14T07:12:28.343Z,19.70
2023-05-14T07:13:31.166Z,19.74
2023-05-14T07:14:34.394Z,19.78
2023-05-14T07:15:37.214Z,19.82
2023-05-14T07:16:41.678Z,19.86
2023-05-14T07:17:45.214Z,19.90
2023-05-14T07:18:48.053Z,19.93
2023-05-14T07:19:51.374Z,19.93
2023-05-14T07:20:54.115Z,19.93
2023-05-14T07:21:57.899Z,19.94
2023-05-14T07:23:00.797Z,19.95
2023-05-14T07:24:04.036Z,19.96
2023-05-14T07:25:07.769Z,19.98
2023-05-14T07:26:10.642Z,19.99
2023-05-14T07:27:13.442Z,20.00
2023-05-14T07:28:16.273Z,20.02
2023-05-14T07:29:19.005Z,20.03
2023-05-14T07:30:21.873Z,20.04
2023-05-14T07:31:25.054Z,20.06
2023-05-14T07:32:27.895Z,20.07
2023-05-14T07:33:30.982Z,20.09
2023-05-14T07:34:33.903Z,20.11
2023-05-14T07:35:36.739Z,20.14
2023-05-14T07:36:39.886Z,20.17
2023-05-14T07:37:42.967Z,20.19
2023-05-14T07:38:45.982Z,20.21
2023-05-14T07:39:49.283Z,20.24
2023-05-14T07:40:52.300Z,20.27
2023-05-14T07:41:55.374Z,20.30
2023-05-14T07:42:58.192Z,20.33
2023-05-14T07:44:01.277Z,20.34
2023-05-14T07:45:04.765Z,20.34
2023-05-14T07:46:07.653Z,20.33
2023-05-14T07:47:11.072Z,20.33
2023-05-14T07:48:14.457Z,20.33
2023-05-14T07:49:17.457Z,20.34
2023-05-14T07:50:20.868Z,20.36
2023-05-14T07:51:24.121Z,20.38
2023-05-14T07:52:26.965Z,20.40
2023-05-14T07:53:29.813Z,20.40
2023-05-14T07:54:32.695Z,20.41
2023-05-14T07:55:35.528Z,20.39
2023-05-14T07:56:38.305Z,20.38
2023-05-14T07:57:41.267Z,20.38
2023-05-14T07:58:44.098Z,20.40
2023-05-14T07:59:48.457Z,20.40
2023-05-14T08:00:51.583Z,20.39
2023-05-14T08:01:54.536Z,20.37
2023-05-14T08:02:57.635Z,20.35
2023-05-14T08:04:01.075Z,20.33
2023-05-14T08:05:04.703Z,20.32
2023-05-14T08:06:07.587Z,20.29
2023-05-14T08:07:11.224Z,20.26
2023-05-14T08:08:13.989Z,20.23
2023-05-14T08:09:17.053Z,20.18
2023-05-14T08:10:19.846Z,20.13
2023-05-14T08:11:22.934Z,20.08
2023-05-14T08:12:26.730Z,20.05
2023-05-14T08:13:29.519Z,20.01
2023-05-14T08:14:32.472Z,19.96
2023-05-14T08:15:35.553Z,19.94
2023-05-14T08:16:38.871Z,19.93
2023-05-14T08:17:41.833Z,19.96
2023-05-14T08:18:44.704Z,19.97
2023-05-14T08:19:47.738Z,19.98
2023-05-14T08:20:51.377Z,20.01
2023-05-14T08:21:54.570Z,20.03
2023-05-14T08:23:00.434Z,20.05
2023-05-14T08:24:03.624Z,20.07
2023-05-14T08:25:07.770Z,20.09
2023-05-14T08:26:11.141Z,20.11
2023-05-14T08:27:13.973Z,20.13
2023-05-14T08:28:16.734Z,20.13
2023-05-14T08:29:19.587Z,20.11
2023-05-14T08:30:23.040Z,20.11
2023-05-14T08:31:26.180Z,20.11
2023-05-14T08:32:29.671Z,20.11
2023-05-14T08:33:32.593Z,20.09
2023-05-14T08:34:35.361Z,20.05
2023-05-14T08:35:38.147Z,19.99
2023-05-14T08:36:40.877Z,19.91
2023-05-14T08:37:43.691Z,19.84
2023-05-14T08:38:46.400Z,19.81
2023-05-14T08:39:49.184Z,19.80
2023-05-14T08:40:58.793Z,19.82
2023-05-14T08:42:06.230Z,19.80
2023-05-14T08:43:11.649Z,19.80
2023-05-14T08:44:18.726Z,19.78
2023-05-14T08:45:26.044Z,19.76
2023-05-14T08:46:31.738Z,19.75
2023-05-14T08:47:34.851Z,19.77
2023-05-14T08:48:40.718Z,19.78
2023-05-14T08:49:47.225Z,19.79
2023-05-14T08:50:50.336Z,19.81
2023-05-14T08:51:53.476Z,19.82
2023-05-14T08:52:56.261Z,19.85
2023-05-14T08:54:02.233Z,19.87
2023-05-14T08:55:06.591Z,19.89
2023-05-14T08:56:09.823Z,19.91
2023-05-14T08:57:13.134Z,19.94
2023-05-14T08:58:15.987Z,19.99
2023-05-14T08:59:19.309Z,20.04
2023-05-14T09:00:23.102Z,20.10
2023-05-14T09:01:26.305Z,20.16
2023-05-14T09:02:31.336Z,20.21
2023-05-14T09:03:35.975Z,20.25
2023-05-14T09:04:39.813Z,20.29
2023-05-14T09:05:43.092Z,20.34
2023-05-14T09:06:49.445Z,20.39
2023-05-14T09:07:52.369Z,20.42
2023-05-14T09:08:56.138Z,20.46
2023-05-14T09:09:59.581Z,20.51
2023-05-14T09:11:02.863Z,20.57
2023-05-14T09:12:06.299Z,20.62
2023-05-14T09:13:10.225Z,20.68
2023-05-14T09:14:13.088Z,20.72
2023-05-14T09:15:16.142Z,20.77
2023-05-14T09:16:20.688Z,20.80
2023-05-14T09:17:26.819Z,20.83
2023-05-14T09:18:29.736Z,20.85
2023-05-14T09:19:32.862Z,20.88
2023-05-14T09:20:35.942Z,20.92
2023-05-14T09:21:38.748Z,20.98
2023-05-14T09:22:42.037Z,21.03
2023-05-14T09:23:45.376Z,21.07
2023-05-14T09:25:02.741Z,21.12
2023-05-14T09:26:06.053Z,21.19
2023-05-14T09:27:10.565Z,21.24
2023-05-14T09:28:17.281Z,21.30
2023-05-14T09:29:20.337Z,21.35
2023-05-14T09:30:24.905Z,21.40
2023-05-14T09:31:32.118Z,21.43
2023-05-14T09:32:40.322Z,21.46
2023-05-14T09:33:43.819Z,21.48
2023-05-14T09:34:46.583Z,21.48
2023-05-14T09:35:49.363Z,21.49
2023-05-14T09:37:03.649Z,21.49
2023-05-14T09:38:06.444Z,21.46
2023-05-14T09:39:09.735Z,21.47
2023-05-14T09:40:13.932Z,21.46
2023-05-14T09:41:17.007Z,21.46
2023-05-14T09:42:20.114Z,21.45
2023-05-14T09:43:22.900Z,21.43
2023-05-14T09:44:26.201Z,21.39
2023-05-14T09:45:29.352Z,21.38
2023-05-14T09:46:32.189Z,21.36
2023-05-14T09:47:36.042Z,21.33
2023-05-14T09:48:38.978Z,21.31
2023-05-14T09:49:41.952Z,21.28
2023-05-14T09:50:46.606Z,21.27
2023-05-14T09:51:50.411Z,21.28
2023-05-14T09:52:55.746Z,21.30
2023-05-14T09:53:58.821Z,21.34
2023-05-14T09:55:02.404Z,21.37
2023-05-14T09:56:05.552Z,21.37
2023-05-14T09:57:08.436Z,21.37
2023-05-14T09:58:11.660Z,21.37
2023-05-14T09:59:14.994Z,21.35
2023-05-14T10:00:18.090Z,21.32
2023-05-14T10:01:22.470Z,21.28
2023-05-14T10:02:27.401Z,21.25
2023-05-14T10:03:30.594Z,21.24
2023-05-14T10:04:34.200Z,21.23
2023-05-14T10:05:39.998Z,21.25
2023-05-14T10:06:46.547Z,21.27
2023-05-14T10:07:52.294Z,21.26
2023-05-14T10:08:57.032Z,21.25
2023-05-14T10:10:03.099Z,21.21
2023-05-14T10:11:13.255Z,21.19
2023-05-14T10:12:20.682Z,21.17
2023-05-14T10:13:39.248Z,21.17
2023-05-14T10:14:49.834Z,21.18
2023-05-14T10:16:00.684Z,21.19
2023-05-14T10:17:06.016Z,21.19
2023-05-14T10:18:12.479Z,21.20
2023-05-14T10:19:17.877Z,21.21
2023-05-14T10:20:22.847Z,21.22
2023-05-14T10:21:28.616Z,21.25
2023-05-14T10:22:34.953Z,21.29
2023-05-14T10:23:38.646Z,21.34
2023-05-14T10:24:41.972Z,21.39
2023-05-14T10:25:45.615Z,21.39
2023-05-14T10:26:48.969Z,21.40
2023-05-14T10:27:51.863Z,21.43
2023-05-14T10:28:55.999Z,21.44
2023-05-14T10:29:58.772Z,21.43
2023-05-14T10:31:01.837Z,21.41
2023-05-14T10:32:06.807Z,21.40
2023-05-14T10:33:13.284Z,21.36
2023-05-14T10:34:37.959Z,21.32
2023-05-14T10:36:00.810Z,21.27
2023-05-14T10:37:16.369Z,21.15
2023-05-14T10:38:23.271Z,21.08
2023-05-14T10:39:47.587Z,21.02
2023-05-14T10:40:53.500Z,20.98
2023-05-14T10:41:56.982Z,20.93
2023-05-14T10:42:59.874Z,20.90
2023-05-14T10:44:09.493Z,20.91
2023-05-14T10:45:14.841Z,20.93
2023-05-14T10:46:18.015Z,20.94
2023-05-14T10:47:21.974Z,20.94
2023-05-14T10:48:26.004Z,20.97
2023-05-14T10:49:42.424Z,20.94
2023-05-14T10:50:48.284Z,20.88
2023-05-14T10:51:53.444Z,20.85
2023-05-14T10:52:57.135Z,20.83
2023-05-14T10:54:01.643Z,20.81
2023-05-14T10:55:10.235Z,20.81
2023-05-14T10:56:14.608Z,20.80
2023-05-14T10:57:19.006Z,20.78
2023-05-14T10:58:22.341Z,20.75
2023-05-14T10:59:28.448Z,20.73
2023-05-14T11:00:34.145Z,20.73
2023-05-14T11:01:36.954Z,20.73
2023-05-14T11:02:41.255Z,20.71
2023-05-14T11:03:46.213Z,20.70
2023-05-14T11:04:59.443Z,20.70
2023-05-14T11:06:03.736Z,20.71
2023-05-14T11:07:06.695Z,20.69
2023-05-14T11:08:10.548Z,20.70
2023-05-14T11:09:17.557Z,20.74
2023-05-14T11:10:22.054Z,20.82
2023-05-14T11:11:26.222Z,20.90
2023-05-14T11:12:29.639Z,20.95
2023-05-14T11:13:34.418Z,20.98
2023-05-14T11:14:37.217Z,21.00
2023-05-14T11:15:46.997Z,20.98
2023-05-14T11:16:50.470Z,20.95
2023-05-14T11:17:54.405Z,20.95
2023-05-14T11:19:04.864Z,20.92
2023-05-14T11:20:09.789Z,20.84
2023-05-14T11:21:13.097Z,20.76
2023-05-14T11:22:15.943Z,20.74
2023-05-14T11:23:18.872Z,20.77
2023-05-14T11:24:21.637Z,20.79
2023-05-14T11:25:25.899Z,20.79
2023-05-14T11:26:28.797Z,20.84
2023-05-14T11:27:34.395Z,20.93
2023-05-14T11:28:38.778Z,21.00
2023-05-14T11:29:46.525Z,21.07
2023-05-14T11:30:50.722Z,21.14
2023-05-14T11:31:54.490Z,21.20
2023-05-14T11:32:58.758Z,21.27
2023-05-14T11:34:05.026Z,21.37
2023-05-14T11:35:08.397Z,21.50
2023-05-14T11:36:12.564Z,21.67
2023-05-14T11:37:16.546Z,21.87
2023-05-14T11:38:21.180Z,22.06
2023-05-14T11:39:23.972Z,22.26
2023-05-14T11:40:26.955Z,22.51
2023-05-14T11:41:31.061Z,22.77
2023-05-14T11:42:33.841Z,23.00
2023-05-14T11:43:36.751Z,23.18
2023-05-14T11:44:39.632Z,23.16
2023-05-14T11:45:42.444Z,23.14
2023-05-14T11:46:54.692Z,23.23
2023-05-14T11:47:57.572Z,23.45
2023-05-14T11:49:00.369Z,23.63
2023-05-14T11:50:03.733Z,23.82
2023-05-14T11:51:06.877Z,24.01
2023-05-14T11:52:11.744Z,24.13
2023-05-14T11:53:25.808Z,24.25
2023-05-14T11:54:29.391Z,24.41
2023-05-14T11:55:35.984Z,24.59
2023-05-14T11:56:38.762Z,24.82
2023-05-14T11:57:42.187Z,24.98
2023-05-14T11:58:55.812Z,25.00
2023-05-14T11:59:58.710Z,24.94
2023-05-14T12:01:01.690Z,24.81
2023-05-14T12:02:05.627Z,24.62
2023-05-14T12:03:10.172Z,24.46
2023-05-14T12:04:14.246Z,24.32
2023-05-14T12:05:17.203Z,24.25
2023-05-14T12:06:19.959Z,24.15
2023-05-14T12:07:22.802Z,24.02
2023-05-14T12:08:30.680Z,23.87
2023-05-14T12:09:36.849Z,23.79
2023-05-14T12:10:42.773Z,23.86
2023-05-14T12:11:46.606Z,24.04
2023-05-14T12:12:49.860Z,24.28
2023-05-14T12:13:53.140Z,24.56
2023-05-14T12:14:55.995Z,24.86
2023-05-14T12:16:02.257Z,25.12
2023-05-14T12:17:15.867Z,25.34
2023-05-14T12:18:24.724Z,25.40
2023-05-14T12:19:30.359Z,25.34
2023-05-14T12:20:33.184Z,25.26
2023-05-14T12:21:36.635Z,25.17
2023-05-14T12:22:42.037Z,25.00
2023-05-14T12:23:44.779Z,24.76
2023-05-14T12:24:58.095Z,24.49
2023-05-14T12:26:08.981Z,24.22
2023-05-14T12:27:12.041Z,24.02
2023-05-14T12:28:16.118Z,23.95
2023-05-14T12:29:19.538Z,23.90
2023-05-14T12:30:22.362Z,23.97
2023-05-14T12:31:32.377Z,24.18
2023-05-14T12:32:35.736Z,24.53
2023-05-14T12:33:38.871Z,24.95
2023-05-14T12:34:41.644Z,25.43
2023-05-14T12:35:44.361Z,25.82
2023-05-14T12:36:47.220Z,26.22
2023-05-14T12:37:50.012Z,26.52
2023-05-14T12:39:01.509Z,26.88
2023-05-14T12:40:09.110Z,27.27
2023-05-14T12:41:11.965Z,27.62
2023-05-14T12:42:15.575Z,27.96
2023-05-14T12:43:18.301Z,28.29
2023-05-14T12:44:22.599Z,28.56
2023-05-14T12:45:25.699Z,28.89
2023-05-14T12:46:28.829Z,29.11
2023-05-14T12:47:32.323Z,29.16
2023-05-14T12:48:35.168Z,29.10
2023-05-14T12:49:38.194Z,28.88
2023-05-14T12:50:40.985Z,28.58
2023-05-14T12:51:44.050Z,28.25
2023-05-14T12:52:46.876Z,27.93
2023-05-14T12:53:51.558Z,27.64
2023-05-14T12:54:54.465Z,27.31
2023-05-14T12:55:57.204Z,27.03
2023-05-14T12:57:00.268Z,26.79
2023-05-14T12:58:03.104Z,26.69
2023-05-14T12:59:05.913Z,26.85
2023-05-14T13:00:14.226Z,27.15
2023-05-14T13:01:17.379Z,27.51
2023-05-14T13:02:20.657Z,27.81
2023-05-14T13:03:24.006Z,27.92
2023-05-14T13:04:26.875Z,28.03
2023-05-14T13:05:29.770Z,28.10
2023-05-14T13:06:32.767Z,28.23
2023-05-14T13:07:36.084Z,28.36
2023-05-14T13:08:39.695Z,28.54
2023-05-14T13:09:43.743Z,28.75
2023-05-14T13:10:47.081Z,29.01
2023-05-14T13:11:49.915Z,29.32
2023-05-14T13:12:52.715Z,29.52
2023-05-14T13:13:55.804Z,29.58
2023-05-14T13:14:58.536Z,29.70
2023-05-14T13:16:01.410Z,30.00
2023-05-14T13:17:05.283Z,30.35
2023-05-14T13:18:08.425Z,30.57
2023-05-14T13:19:11.435Z,30.79
2023-05-14T13:20:15.916Z,30.90
2023-05-14T13:21:18.729Z,30.96
2023-05-14T13:22:21.501Z,31.01
2023-05-14T13:23:24.315Z,31.13
2023-05-14T13:24:27.097Z,31.16
2023-05-14T13:25:29.827Z,31.05
2023-05-14T13:26:32.819Z,30.95
2023-05-14T13:27:38.455Z,30.89
2023-05-14T13:28:41.499Z,30.90
2023-05-14T13:29:44.294Z,30.71
2023-05-14T13:31:05.187Z,30.60
2023-05-14T13:32:08.496Z,30.62
2023-05-14T13:33:11.795Z,30.76
2023-05-14T13:34:14.851Z,30.94
2023-05-14T13:35:17.794Z,31.13
2023-05-14T13:36:20.821Z,31.36
2023-05-14T13:37:24.986Z,31.46
2023-05-14T13:38:27.880Z,31.57
2023-05-14T13:39:30.935Z,31.76
2023-05-14T13:40:33.859Z,31.84
2023-05-14T13:41:37.853Z,31.71
2023-05-14T13:42:40.793Z,31.51
2023-05-14T13:43:43.604Z,31.31
2023-05-14T13:44:46.323Z,31.00
2023-05-14T13:45:50.144Z,30.63